sensor_id;sensor_type;location;lat;lon;timestamp;temperature;humidity
71188;DHT22;58893;53.130;8.158;2022-08-21T00:00:30;20.10;76.00
71188;DHT22;58893;53.130;8.158;2022-08-21T00:03:01;20.10;76.80
71188;DHT22;58893;53.130;8.158;2022-08-21T00:05:28;20.10;77.40
71188;DHT22;58893;53.130;8.158;2022-08-21T00:07:54;20.00;77.80
71188;DHT22;58893;53.130;8.158;2022-08-21T00:10:21;20.00;77.90
71188;DHT22;58893;53.130;8.158;2022-08-21T00:12:47;20.00;79.10
71188;DHT22;58893;53.130;8.158;2022-08-21T00:15:16;20.00;78.70
71188;DHT22;58893;53.130;8.158;2022-08-21T00:17:42;20.00;79.40
71188;DHT22;58893;53.130;8.158;2022-08-21T00:20:11;20.00;76.70
71188;DHT22;58893;53.130;8.158;2022-08-21T00:22:37;20.00;76.70
71188;DHT22;58893;53.130;8.158;2022-08-21T00:25:04;20.00;76.60
71188;DHT22;58893;53.130;8.158;2022-08-21T00:27:31;20.00;76.50
71188;DHT22;58893;53.130;8.158;2022-08-21T00:29:56;20.00;76.30
71188;DHT22;58893;53.130;8.158;2022-08-21T00:32:23;20.00;76.40
71188;DHT22;58893;53.130;8.158;2022-08-21T00:34:50;20.00;76.90
71188;DHT22;58893;53.130;8.158;2022-08-21T00:37:16;19.90;76.90
71188;DHT22;58893;53.130;8.158;2022-08-21T00:39:41;19.90;76.50
71188;DHT22;58893;53.130;8.158;2022-08-21T00:42:07;19.90;76.00
71188;DHT22;58893;53.130;8.158;2022-08-21T00:44:33;19.90;75.70
71188;DHT22;58893;53.130;8.158;2022-08-21T00:46:58;19.90;75.60
71188;DHT22;58893;53.130;8.158;2022-08-21T00:49:24;19.90;75.80
71188;DHT22;58893;53.130;8.158;2022-08-21T00:51:53;19.80;75.90
71188;DHT22;58893;53.130;8.158;2022-08-21T00:54:22;19.80;75.80
71188;DHT22;58893;53.130;8.158;2022-08-21T00:56:57;19.80;76.00
71188;DHT22;58893;53.130;8.158;2022-08-21T00:59:24;19.70;76.20
71188;DHT22;58893;53.130;8.158;2022-08-21T01:01:50;19.70;76.30
71188;DHT22;58893;53.130;8.158;2022-08-21T01:04:17;19.70;76.50
71188;DHT22;58893;53.130;8.158;2022-08-21T01:06:44;19.70;76.80
71188;DHT22;58893;53.130;8.158;2022-08-21T01:09:10;19.70;78.40
71188;DHT22;58893;53.130;8.158;2022-08-21T01:11:36;19.60;75.40
71188;DHT22;58893;53.130;8.158;2022-08-21T01:31:19;19.40;65.90
71188;DHT22;58893;53.130;8.158;2022-08-21T01:33:47;19.40;66.70
71188;DHT22;58893;53.130;8.158;2022-08-21T01:36:13;19.40;66.90
71188;DHT22;58893;53.130;8.158;2022-08-21T01:38:39;19.40;66.40
71188;DHT22;58893;53.130;8.158;2022-08-21T01:41:04;19.30;65.30
71188;DHT22;58893;53.130;8.158;2022-08-21T01:43:30;19.30;65.40
71188;DHT22;58893;53.130;8.158;2022-08-21T01:45:56;19.30;65.40
71188;DHT22;58893;53.130;8.158;2022-08-21T01:48:21;19.30;65.50
71188;DHT22;58893;53.130;8.158;2022-08-21T01:50:47;19.30;65.60
71188;DHT22;58893;53.130;8.158;2022-08-21T01:53:13;19.30;65.80
71188;DHT22;58893;53.130;8.158;2022-08-21T01:55:41;19.30;65.80
71188;DHT22;58893;53.130;8.158;2022-08-21T01:58:07;19.30;66.00
71188;DHT22;58893;53.130;8.158;2022-08-21T02:00:32;19.30;66.10
71188;DHT22;58893;53.130;8.158;2022-08-21T02:02:58;19.30;66.00
71188;DHT22;58893;53.130;8.158;2022-08-21T02:05:23;19.20;65.60
71188;DHT22;58893;53.130;8.158;2022-08-21T02:07:52;19.20;65.40
71188;DHT22;58893;53.130;8.158;2022-08-21T02:10:22;19.20;65.40
71188;DHT22;58893;53.130;8.158;2022-08-21T02:12:47;19.20;65.50
71188;DHT22;58893;53.130;8.158;2022-08-21T02:15:13;19.20;65.60
71188;DHT22;58893;53.130;8.158;2022-08-21T02:17:45;19.20;65.80
71188;DHT22;58893;53.130;8.158;2022-08-21T02:20:17;19.20;66.00
71188;DHT22;58893;53.130;8.158;2022-08-21T02:22:43;19.10;66.00
71188;DHT22;58893;53.130;8.158;2022-08-21T02:25:09;19.10;66.80
71188;DHT22;58893;53.130;8.158;2022-08-21T02:27:42;19.10;66.30
71188;DHT22;58893;53.130;8.158;2022-08-21T02:30:11;19.10;66.30
71188;DHT22;58893;53.130;8.158;2022-08-21T02:32:38;19.10;66.40
71188;DHT22;58893;53.130;8.158;2022-08-21T02:35:04;19.10;66.40
71188;DHT22;58893;53.130;8.158;2022-08-21T02:37:30;19.10;66.50
71188;DHT22;58893;53.130;8.158;2022-08-21T02:39:55;19.10;66.50
71188;DHT22;58893;53.130;8.158;2022-08-21T02:42:21;19.10;66.70
71188;DHT22;58893;53.130;8.158;2022-08-21T02:44:47;19.10;66.80
71188;DHT22;58893;53.130;8.158;2022-08-21T02:47:14;19.10;66.90
71188;DHT22;58893;53.130;8.158;2022-08-21T02:49:39;19.10;66.80
71188;DHT22;58893;53.130;8.158;2022-08-21T02:52:05;19.10;66.80
71188;DHT22;58893;53.130;8.158;2022-08-21T02:54:31;19.10;66.60
71188;DHT22;58893;53.130;8.158;2022-08-21T02:56:57;19.10;66.70
71188;DHT22;58893;53.130;8.158;2022-08-21T02:59:22;19.20;66.70
71188;DHT22;58893;53.130;8.158;2022-08-21T03:01:48;19.20;66.50
71188;DHT22;58893;53.130;8.158;2022-08-21T03:04:14;19.20;66.00
71188;DHT22;58893;53.130;8.158;2022-08-21T03:06:39;19.20;65.80
71188;DHT22;58893;53.130;8.158;2022-08-21T03:09:05;19.20;65.70
71188;DHT22;58893;53.130;8.158;2022-08-21T03:11:31;19.20;65.70
71188;DHT22;58893;53.130;8.158;2022-08-21T03:13:57;19.20;65.70
71188;DHT22;58893;53.130;8.158;2022-08-21T03:16:22;19.20;65.70
71188;DHT22;58893;53.130;8.158;2022-08-21T03:18:48;19.10;65.70
71188;DHT22;58893;53.130;8.158;2022-08-21T03:21:14;19.10;65.70
71188;DHT22;58893;53.130;8.158;2022-08-21T03:23:39;19.10;65.60
71188;DHT22;58893;53.130;8.158;2022-08-21T03:26:07;19.10;65.70
71188;DHT22;58893;53.130;8.158;2022-08-21T03:28:33;19.10;65.80
71188;DHT22;58893;53.130;8.158;2022-08-21T03:30:58;19.10;66.00
71188;DHT22;58893;53.130;8.158;2022-08-21T03:33:24;19.10;66.10
71188;DHT22;58893;53.130;8.158;2022-08-21T03:36:00;19.10;66.30
71188;DHT22;58893;53.130;8.158;2022-08-21T03:38:28;19.10;66.30
71188;DHT22;58893;53.130;8.158;2022-08-21T03:40:54;19.10;66.20
71188;DHT22;58893;53.130;8.158;2022-08-21T03:43:20;19.00;65.80
71188;DHT22;58893;53.130;8.158;2022-08-21T03:45:46;19.00;65.90
71188;DHT22;58893;53.130;8.158;2022-08-21T03:48:12;19.00;66.10
71188;DHT22;58893;53.130;8.158;2022-08-21T03:50:42;19.00;66.50
71188;DHT22;58893;53.130;8.158;2022-08-21T03:53:10;19.00;66.20
71188;DHT22;58893;53.130;8.158;2022-08-21T03:55:36;19.00;66.70
71188;DHT22;58893;53.130;8.158;2022-08-21T03:58:02;19.00;67.20
71188;DHT22;58893;53.130;8.158;2022-08-21T04:00:27;18.90;68.70
71188;DHT22;58893;53.130;8.158;2022-08-21T04:02:53;18.90;67.20
71188;DHT22;58893;53.130;8.158;2022-08-21T04:05:20;18.90;66.10
71188;DHT22;58893;53.130;8.158;2022-08-21T04:08:01;18.90;65.70
71188;DHT22;58893;53.130;8.158;2022-08-21T04:10:29;18.90;66.00
71188;DHT22;58893;53.130;8.158;2022-08-21T04:12:56;18.90;66.20
71188;DHT22;58893;53.130;8.158;2022-08-21T04:15:23;18.90;66.20
71188;DHT22;58893;53.130;8.158;2022-08-21T04:17:49;18.90;66.10
71188;DHT22;58893;53.130;8.158;2022-08-21T04:20:19;18.90;65.80
71188;DHT22;58893;53.130;8.158;2022-08-21T04:22:45;18.90;65.90
71188;DHT22;58893;53.130;8.158;2022-08-21T04:25:12;18.90;66.00
71188;DHT22;58893;53.130;8.158;2022-08-21T04:27:38;18.90;66.10
71188;DHT22;58893;53.130;8.158;2022-08-21T04:30:06;18.90;66.00
71188;DHT22;58893;53.130;8.158;2022-08-21T04:32:32;18.90;65.90
71188;DHT22;58893;53.130;8.158;2022-08-21T04:34:59;18.90;66.00
71188;DHT22;58893;53.130;8.158;2022-08-21T04:37:26;18.90;66.00
71188;DHT22;58893;53.130;8.158;2022-08-21T04:39:52;18.90;66.00
71188;DHT22;58893;53.130;8.158;2022-08-21T04:42:18;18.90;66.00
71188;DHT22;58893;53.130;8.158;2022-08-21T04:44:44;18.90;66.00
71188;DHT22;58893;53.130;8.158;2022-08-21T04:47:09;18.90;66.10
71188;DHT22;58893;53.130;8.158;2022-08-21T04:49:35;18.90;66.00
71188;DHT22;58893;53.130;8.158;2022-08-21T04:52:01;19.00;66.10
71188;DHT22;58893;53.130;8.158;2022-08-21T04:54:27;18.90;66.00
71188;DHT22;58893;53.130;8.158;2022-08-21T04:56:57;19.00;66.10
71188;DHT22;58893;53.130;8.158;2022-08-21T04:59:31;19.00;66.00
71188;DHT22;58893;53.130;8.158;2022-08-21T05:01:58;19.00;66.00
71188;DHT22;58893;53.130;8.158;2022-08-21T05:04:26;19.00;66.10
71188;DHT22;58893;53.130;8.158;2022-08-21T05:06:57;19.00;66.10
71188;DHT22;58893;53.130;8.158;2022-08-21T05:09:24;19.00;66.10
71188;DHT22;58893;53.130;8.158;2022-08-21T05:11:50;19.00;66.00
71188;DHT22;58893;53.130;8.158;2022-08-21T05:14:17;19.00;66.00
71188;DHT22;58893;53.130;8.158;2022-08-21T05:16:42;19.00;66.00
71188;DHT22;58893;53.130;8.158;2022-08-21T05:19:09;19.00;66.00
71188;DHT22;58893;53.130;8.158;2022-08-21T05:21:37;19.00;66.10
71188;DHT22;58893;53.130;8.158;2022-08-21T05:24:03;19.00;66.10
71188;DHT22;58893;53.130;8.158;2022-08-21T05:26:29;19.00;66.10
71188;DHT22;58893;53.130;8.158;2022-08-21T05:28:55;19.10;66.40
71188;DHT22;58893;53.130;8.158;2022-08-21T05:31:21;19.10;66.40
71188;DHT22;58893;53.130;8.158;2022-08-21T05:33:46;19.10;66.50
71188;DHT22;58893;53.130;8.158;2022-08-21T05:36:12;19.20;66.60
71188;DHT22;58893;53.130;8.158;2022-08-21T05:38:37;19.20;66.60
71188;DHT22;58893;53.130;8.158;2022-08-21T05:41:03;19.20;66.50
71188;DHT22;58893;53.130;8.158;2022-08-21T05:43:29;19.30;67.30
71188;DHT22;58893;53.130;8.158;2022-08-21T05:45:54;19.40;66.70
71188;DHT22;58893;53.130;8.158;2022-08-21T05:48:22;19.40;66.60
71188;DHT22;58893;53.130;8.158;2022-08-21T05:50:50;19.50;66.70
71188;DHT22;58893;53.130;8.158;2022-08-21T05:53:19;19.60;66.70
71188;DHT22;58893;53.130;8.158;2022-08-21T05:55:45;19.60;66.50
71188;DHT22;58893;53.130;8.158;2022-08-21T05:58:11;19.70;66.50
71188;DHT22;58893;53.130;8.158;2022-08-21T06:00:37;19.80;66.40
71188;DHT22;58893;53.130;8.158;2022-08-21T06:03:03;19.90;66.30
71188;DHT22;58893;53.130;8.158;2022-08-21T06:05:29;19.90;66.30
71188;DHT22;58893;53.130;8.158;2022-08-21T06:07:55;20.00;66.20
71188;DHT22;58893;53.130;8.158;2022-08-21T06:10:21;20.10;66.20
71188;DHT22;58893;53.130;8.158;2022-08-21T06:12:47;20.20;66.30
71188;DHT22;58893;53.130;8.158;2022-08-21T06:15:17;20.20;66.10
71188;DHT22;58893;53.130;8.158;2022-08-21T06:17:43;20.30;66.10
71188;DHT22;58893;53.130;8.158;2022-08-21T06:20:09;20.30;66.10
71188;DHT22;58893;53.130;8.158;2022-08-21T06:22:34;20.40;66.10
71188;DHT22;58893;53.130;8.158;2022-08-21T06:25:00;20.50;66.20
71188;DHT22;58893;53.130;8.158;2022-08-21T06:27:26;20.60;66.20
71188;DHT22;58893;53.130;8.158;2022-08-21T06:29:51;20.70;66.20
71188;DHT22;58893;53.130;8.158;2022-08-21T06:32:17;20.70;66.10
71188;DHT22;58893;53.130;8.158;2022-08-21T06:34:42;20.80;66.00
71188;DHT22;58893;53.130;8.158;2022-08-21T06:37:08;20.90;66.10
71188;DHT22;58893;53.130;8.158;2022-08-21T06:39:34;20.90;66.00
71188;DHT22;58893;53.130;8.158;2022-08-21T06:42:00;21.00;65.90
71188;DHT22;58893;53.130;8.158;2022-08-21T06:44:25;21.10;65.80
71188;DHT22;58893;53.130;8.158;2022-08-21T06:46:51;21.10;65.70
71188;DHT22;58893;53.130;8.158;2022-08-21T06:49:17;21.20;65.60
71188;DHT22;58893;53.130;8.158;2022-08-21T06:51:43;21.20;65.50
71188;DHT22;58893;53.130;8.158;2022-08-21T06:54:08;21.30;65.40
71188;DHT22;58893;53.130;8.158;2022-08-21T06:56:34;21.40;65.40
71188;DHT22;58893;53.130;8.158;2022-08-21T06:59:03;21.40;65.40
71188;DHT22;58893;53.130;8.158;2022-08-21T07:01:30;21.50;65.50
71188;DHT22;58893;53.130;8.158;2022-08-21T07:03:55;21.50;65.40
71188;DHT22;58893;53.130;8.158;2022-08-21T07:06:21;21.50;65.30
71188;DHT22;58893;53.130;8.158;2022-08-21T07:08:47;21.60;65.40
71188;DHT22;58893;53.130;8.158;2022-08-21T07:11:21;21.60;65.40
71188;DHT22;58893;53.130;8.158;2022-08-21T07:13:47;21.60;65.40
71188;DHT22;58893;53.130;8.158;2022-08-21T07:16:13;21.70;65.40
71188;DHT22;58893;53.130;8.158;2022-08-21T07:18:39;21.70;65.40
71188;DHT22;58893;53.130;8.158;2022-08-21T07:21:06;21.80;65.30
71188;DHT22;58893;53.130;8.158;2022-08-21T07:23:35;21.80;65.20
71188;DHT22;58893;53.130;8.158;2022-08-21T07:26:02;21.80;65.00
71188;DHT22;58893;53.130;8.158;2022-08-21T07:28:28;21.90;65.10
71188;DHT22;58893;53.130;8.158;2022-08-21T07:30:56;21.90;64.90
71188;DHT22;58893;53.130;8.158;2022-08-21T07:33:25;21.90;65.50
71188;DHT22;58893;53.130;8.158;2022-08-21T07:35:51;22.00;64.70
71188;DHT22;58893;53.130;8.158;2022-08-21T07:38:17;22.00;64.40
71188;DHT22;58893;53.130;8.158;2022-08-21T07:40:45;22.00;64.20
71188;DHT22;58893;53.130;8.158;2022-08-21T07:43:10;22.10;64.00
71188;DHT22;58893;53.130;8.158;2022-08-21T07:45:37;22.10;63.60
71188;DHT22;58893;53.130;8.158;2022-08-21T07:48:03;22.10;63.30
71188;DHT22;58893;53.130;8.158;2022-08-21T07:50:29;22.20;63.50
71188;DHT22;58893;53.130;8.158;2022-08-21T07:52:55;22.20;63.00
71188;DHT22;58893;53.130;8.158;2022-08-21T07:55:22;22.20;62.60
71188;DHT22;58893;53.130;8.158;2022-08-21T07:57:48;22.20;62.40
71188;DHT22;58893;53.130;8.158;2022-08-21T08:00:18;22.30;62.60
71188;DHT22;58893;53.130;8.158;2022-08-21T08:02:46;22.30;62.50
71188;DHT22;58893;53.130;8.158;2022-08-21T08:05:15;22.30;62.50
71188;DHT22;58893;53.130;8.158;2022-08-21T08:07:41;22.40;62.50
71188;DHT22;58893;53.130;8.158;2022-08-21T08:10:08;22.40;62.50
71188;DHT22;58893;53.130;8.158;2022-08-21T08:12:35;22.40;62.50
71188;DHT22;58893;53.130;8.158;2022-08-21T08:15:03;22.50;63.20
71188;DHT22;58893;53.130;8.158;2022-08-21T08:17:29;22.50;63.30
71188;DHT22;58893;53.130;8.158;2022-08-21T08:19:55;22.50;62.90
71188;DHT22;58893;53.130;8.158;2022-08-21T08:22:22;22.60;63.10
71188;DHT22;58893;53.130;8.158;2022-08-21T08:24:52;22.60;63.40
71188;DHT22;58893;53.130;8.158;2022-08-21T08:27:18;22.70;64.00
71188;DHT22;58893;53.130;8.158;2022-08-21T08:29:45;22.80;65.90
71188;DHT22;58893;53.130;8.158;2022-08-21T08:32:10;22.80;65.90
71188;DHT22;58893;53.130;8.158;2022-08-21T08:34:37;22.80;66.90
71188;DHT22;58893;53.130;8.158;2022-08-21T08:37:04;22.80;66.00
71188;DHT22;58893;53.130;8.158;2022-08-21T08:39:31;22.90;64.40
71188;DHT22;58893;53.130;8.158;2022-08-21T08:44:35;22.90;65.50
71188;DHT22;58893;53.130;8.158;2022-08-21T08:47:01;23.00;62.90
71188;DHT22;58893;53.130;8.158;2022-08-21T08:49:36;23.00;63.20
71188;DHT22;58893;53.130;8.158;2022-08-21T08:52:20;23.00;63.00
71188;DHT22;58893;53.130;8.158;2022-08-21T08:54:51;23.00;62.80
71188;DHT22;58893;53.130;8.158;2022-08-21T08:57:23;23.00;63.50
71188;DHT22;58893;53.130;8.158;2022-08-21T08:59:52;23.00;61.70
71188;DHT22;58893;53.130;8.158;2022-08-21T09:02:19;23.10;61.50
71188;DHT22;58893;53.130;8.158;2022-08-21T09:04:46;23.10;61.80
71188;DHT22;58893;53.130;8.158;2022-08-21T09:07:19;23.10;60.10
71188;DHT22;58893;53.130;8.158;2022-08-21T09:10:16;23.10;60.40
71188;DHT22;58893;53.130;8.158;2022-08-21T09:13:04;23.10;60.70
71188;DHT22;58893;53.130;8.158;2022-08-21T09:23:57;23.20;61.20
71188;DHT22;58893;53.130;8.158;2022-08-21T09:26:29;23.20;61.70
71188;DHT22;58893;53.130;8.158;2022-08-21T09:28:58;23.30;63.90
71188;DHT22;58893;53.130;8.158;2022-08-21T09:31:34;23.30;59.80
71188;DHT22;58893;53.130;8.158;2022-08-21T09:34:02;23.30;59.40
71188;DHT22;58893;53.130;8.158;2022-08-21T09:36:41;23.30;59.80
71188;DHT22;58893;53.130;8.158;2022-08-21T09:39:09;23.30;59.70
71188;DHT22;58893;53.130;8.158;2022-08-21T09:41:36;23.30;59.20
71188;DHT22;58893;53.130;8.158;2022-08-21T09:44:04;23.30;58.20
71188;DHT22;58893;53.130;8.158;2022-08-21T09:46:30;23.20;58.20
71188;DHT22;58893;53.130;8.158;2022-08-21T09:49:02;23.20;59.30
71188;DHT22;58893;53.130;8.158;2022-08-21T09:53:55;23.20;59.10
71188;DHT22;58893;53.130;8.158;2022-08-21T09:56:58;23.10;59.70
71188;DHT22;58893;53.130;8.158;2022-08-21T09:59:44;23.10;57.30
71188;DHT22;58893;53.130;8.158;2022-08-21T10:02:30;23.10;56.90
71188;DHT22;58893;53.130;8.158;2022-08-21T10:05:14;23.10;56.60
71188;DHT22;58893;53.130;8.158;2022-08-21T10:07:40;23.10;56.90
71188;DHT22;58893;53.130;8.158;2022-08-21T10:13:13;23.10;57.60
71188;DHT22;58893;53.130;8.158;2022-08-21T10:30:02;23.20;55.90
71188;DHT22;58893;53.130;8.158;2022-08-21T10:32:40;23.30;56.10
71188;DHT22;58893;53.130;8.158;2022-08-21T10:35:14;23.30;55.80
71188;DHT22;58893;53.130;8.158;2022-08-21T10:40:22;23.30;55.90
71188;DHT22;58893;53.130;8.158;2022-08-21T10:45:57;23.30;55.80
71188;DHT22;58893;53.130;8.158;2022-08-21T10:48:49;23.30;56.00
71188;DHT22;58893;53.130;8.158;2022-08-21T10:51:39;23.30;56.10
71188;DHT22;58893;53.130;8.158;2022-08-21T10:56:40;23.40;56.20
71188;DHT22;58893;53.130;8.158;2022-08-21T10:59:29;23.40;56.20
71188;DHT22;58893;53.130;8.158;2022-08-21T11:04:37;23.40;55.80
71188;DHT22;58893;53.130;8.158;2022-08-21T11:10:04;23.50;55.20
71188;DHT22;58893;53.130;8.158;2022-08-21T11:16:05;23.60;55.30
71188;DHT22;58893;53.130;8.158;2022-08-21T11:18:34;23.60;55.40
71188;DHT22;58893;53.130;8.158;2022-08-21T11:29:10;23.70;55.00
71188;DHT22;58893;53.130;8.158;2022-08-21T11:34:28;23.80;55.20
71188;DHT22;58893;53.130;8.158;2022-08-21T11:40:03;23.80;55.20
71188;DHT22;58893;53.130;8.158;2022-08-21T11:50:44;23.80;54.90
71188;DHT22;58893;53.130;8.158;2022-08-21T11:53:24;23.90;55.40
71188;DHT22;58893;53.130;8.158;2022-08-21T11:56:01;24.00;55.30
71188;DHT22;58893;53.130;8.158;2022-08-21T11:58:43;24.00;55.00
71188;DHT22;58893;53.130;8.158;2022-08-21T12:01:15;24.10;55.20
71188;DHT22;58893;53.130;8.158;2022-08-21T12:03:56;24.20;55.10
71188;DHT22;58893;53.130;8.158;2022-08-21T12:06:41;24.40;54.90
71188;DHT22;58893;53.130;8.158;2022-08-21T12:09:29;24.50;56.00
71188;DHT22;58893;53.130;8.158;2022-08-21T12:12:11;24.60;52.10
71188;DHT22;58893;53.130;8.158;2022-08-21T12:14:44;24.60;51.60
71188;DHT22;58893;53.130;8.158;2022-08-21T12:17:19;24.70;51.70
71188;DHT22;58893;53.130;8.158;2022-08-21T12:19:45;24.80;51.80
71188;DHT22;58893;53.130;8.158;2022-08-21T12:22:13;24.80;51.40
71188;DHT22;58893;53.130;8.158;2022-08-21T12:27:28;24.90;50.80
71188;DHT22;58893;53.130;8.158;2022-08-21T12:30:05;25.00;50.50
71188;DHT22;58893;53.130;8.158;2022-08-21T12:35:31;25.10;50.10
71188;DHT22;58893;53.130;8.158;2022-08-21T12:40:46;25.30;49.20
71188;DHT22;58893;53.130;8.158;2022-08-21T12:43:15;25.30;49.20
71188;DHT22;58893;53.130;8.158;2022-08-21T12:45:46;25.40;49.30
71188;DHT22;58893;53.130;8.158;2022-08-21T12:51:18;25.50;49.20
71188;DHT22;58893;53.130;8.158;2022-08-21T12:53:52;25.50;48.80
71188;DHT22;58893;53.130;8.158;2022-08-21T12:56:21;25.50;48.40
71188;DHT22;58893;53.130;8.158;2022-08-21T12:58:49;25.50;48.20
71188;DHT22;58893;53.130;8.158;2022-08-21T13:01:31;25.50;48.20
71188;DHT22;58893;53.130;8.158;2022-08-21T13:04:04;25.50;48.40
71188;DHT22;58893;53.130;8.158;2022-08-21T13:06:38;25.50;48.90
71188;DHT22;58893;53.130;8.158;2022-08-21T13:09:07;25.50;48.60
71188;DHT22;58893;53.130;8.158;2022-08-21T13:11:34;25.50;48.40
71188;DHT22;58893;53.130;8.158;2022-08-21T13:14:02;25.50;48.00
71188;DHT22;58893;53.130;8.158;2022-08-21T13:16:29;25.50;48.10
71188;DHT22;58893;53.130;8.158;2022-08-21T13:19:02;25.50;48.10
71188;DHT22;58893;53.130;8.158;2022-08-21T13:21:34;25.50;48.00
71188;DHT22;58893;53.130;8.158;2022-08-21T13:24:20;25.50;48.10
71188;DHT22;58893;53.130;8.158;2022-08-21T13:26:47;25.50;48.30
71188;DHT22;58893;53.130;8.158;2022-08-21T13:29:15;25.40;48.20
71188;DHT22;58893;53.130;8.158;2022-08-21T13:31:48;25.40;48.00
71188;DHT22;58893;53.130;8.158;2022-08-21T13:34:14;25.40;48.10
71188;DHT22;58893;53.130;8.158;2022-08-21T13:36:42;25.40;48.10
71188;DHT22;58893;53.130;8.158;2022-08-21T13:39:10;25.30;47.50
71188;DHT22;58893;53.130;8.158;2022-08-21T13:41:40;25.30;47.40
71188;DHT22;58893;53.130;8.158;2022-08-21T13:44:15;25.30;48.00
71188;DHT22;58893;53.130;8.158;2022-08-21T13:46:40;25.30;47.40
71188;DHT22;58893;53.130;8.158;2022-08-21T13:49:07;25.30;48.00
71188;DHT22;58893;53.130;8.158;2022-08-21T13:51:34;25.20;47.40
71188;DHT22;58893;53.130;8.158;2022-08-21T13:54:00;25.20;47.60
71188;DHT22;58893;53.130;8.158;2022-08-21T13:56:33;25.20;47.90
71188;DHT22;58893;53.130;8.158;2022-08-21T13:59:00;25.20;49.30
71188;DHT22;58893;53.130;8.158;2022-08-21T14:01:36;25.20;47.40
71188;DHT22;58893;53.130;8.158;2022-08-21T14:04:14;25.20;46.90
71188;DHT22;58893;53.130;8.158;2022-08-21T14:06:41;25.20;46.20
71188;DHT22;58893;53.130;8.158;2022-08-21T14:11:35;25.10;45.90
71188;DHT22;58893;53.130;8.158;2022-08-21T14:14:04;25.10;45.90
71188;DHT22;58893;53.130;8.158;2022-08-21T14:16:58;25.10;46.20
71188;DHT22;58893;53.130;8.158;2022-08-21T14:19:37;25.10;46.40
71188;DHT22;58893;53.130;8.158;2022-08-21T14:25:00;25.10;46.20
71188;DHT22;58893;53.130;8.158;2022-08-21T14:27:29;25.10;45.90
71188;DHT22;58893;53.130;8.158;2022-08-21T14:30:00;25.10;45.40
71188;DHT22;58893;53.130;8.158;2022-08-21T14:32:28;25.10;45.70
71188;DHT22;58893;53.130;8.158;2022-08-21T14:34:56;25.10;45.90
71188;DHT22;58893;53.130;8.158;2022-08-21T14:37:22;25.10;47.20
71188;DHT22;58893;53.130;8.158;2022-08-21T14:39:48;25.10;46.70
71188;DHT22;58893;53.130;8.158;2022-08-21T14:42:14;25.10;47.00
71188;DHT22;58893;53.130;8.158;2022-08-21T14:44:39;25.10;47.40
71188;DHT22;58893;53.130;8.158;2022-08-21T14:47:07;25.10;47.90
71188;DHT22;58893;53.130;8.158;2022-08-21T14:49:33;25.10;47.30
71188;DHT22;58893;53.130;8.158;2022-08-21T14:51:59;25.10;46.70
71188;DHT22;58893;53.130;8.158;2022-08-21T14:54:29;25.10;46.50
71188;DHT22;58893;53.130;8.158;2022-08-21T14:56:57;25.10;46.30
71188;DHT22;58893;53.130;8.158;2022-08-21T14:59:23;25.10;46.20
71188;DHT22;58893;53.130;8.158;2022-08-21T15:01:49;25.10;46.10
71188;DHT22;58893;53.130;8.158;2022-08-21T15:04:15;25.20;46.40
71188;DHT22;58893;53.130;8.158;2022-08-21T15:06:40;25.20;46.30
71188;DHT22;58893;53.130;8.158;2022-08-21T15:09:06;25.20;46.20
71188;DHT22;58893;53.130;8.158;2022-08-21T15:11:32;25.20;46.20
71188;DHT22;58893;53.130;8.158;2022-08-21T15:14:02;25.20;46.80
71188;DHT22;58893;53.130;8.158;2022-08-21T15:16:29;25.20;46.70
71188;DHT22;58893;53.130;8.158;2022-08-21T15:18:56;25.20;47.10
71188;DHT22;58893;53.130;8.158;2022-08-21T15:21:22;25.20;48.40
71188;DHT22;58893;53.130;8.158;2022-08-21T15:23:48;25.20;47.40
71188;DHT22;58893;53.130;8.158;2022-08-21T15:26:13;25.20;46.20
71188;DHT22;58893;53.130;8.158;2022-08-21T15:28:40;25.20;46.20
71188;DHT22;58893;53.130;8.158;2022-08-21T15:31:06;25.20;46.20
71188;DHT22;58893;53.130;8.158;2022-08-21T15:33:32;25.20;46.20
71188;DHT22;58893;53.130;8.158;2022-08-21T15:35:58;25.20;46.30
71188;DHT22;58893;53.130;8.158;2022-08-21T15:38:24;25.20;46.30
71188;DHT22;58893;53.130;8.158;2022-08-21T15:40:50;25.20;46.40
71188;DHT22;58893;53.130;8.158;2022-08-21T15:43:30;25.20;46.60
71188;DHT22;58893;53.130;8.158;2022-08-21T15:45:59;25.20;46.70
71188;DHT22;58893;53.130;8.158;2022-08-21T15:48:25;25.20;46.80
71188;DHT22;58893;53.130;8.158;2022-08-21T15:50:51;25.10;46.80
71188;DHT22;58893;53.130;8.158;2022-08-21T15:53:17;25.10;46.70
71188;DHT22;58893;53.130;8.158;2022-08-21T15:55:43;25.10;46.70
71188;DHT22;58893;53.130;8.158;2022-08-21T15:58:13;25.10;46.90
71188;DHT22;58893;53.130;8.158;2022-08-21T16:00:39;25.10;47.00
71188;DHT22;58893;53.130;8.158;2022-08-21T16:03:05;25.00;47.00
71188;DHT22;58893;53.130;8.158;2022-08-21T16:05:32;25.00;47.30
71188;DHT22;58893;53.130;8.158;2022-08-21T16:07:59;25.00;47.80
71188;DHT22;58893;53.130;8.158;2022-08-21T16:10:24;25.00;48.40
71188;DHT22;58893;53.130;8.158;2022-08-21T16:12:55;25.00;49.10
71188;DHT22;58893;53.130;8.158;2022-08-21T16:15:23;25.00;50.10
71188;DHT22;58893;53.130;8.158;2022-08-21T16:17:49;24.90;51.20
71188;DHT22;58893;53.130;8.158;2022-08-21T16:20:20;24.90;52.10
71188;DHT22;58893;53.130;8.158;2022-08-21T16:22:47;24.90;52.90
71188;DHT22;58893;53.130;8.158;2022-08-21T16:25:13;24.90;53.30
71188;DHT22;58893;53.130;8.158;2022-08-21T16:27:41;24.80;53.70
71188;DHT22;58893;53.130;8.158;2022-08-21T16:30:08;24.80;54.10
71188;DHT22;58893;53.130;8.158;2022-08-21T16:32:34;24.80;54.50
71188;DHT22;58893;53.130;8.158;2022-08-21T16:35:00;24.70;54.70
71188;DHT22;58893;53.130;8.158;2022-08-21T16:37:27;24.70;54.90
71188;DHT22;58893;53.130;8.158;2022-08-21T16:39:52;24.70;55.30
71188;DHT22;58893;53.130;8.158;2022-08-21T16:42:22;24.60;55.40
71188;DHT22;58893;53.130;8.158;2022-08-21T16:44:48;24.60;55.80
71188;DHT22;58893;53.130;8.158;2022-08-21T16:47:14;24.60;56.00
71188;DHT22;58893;53.130;8.158;2022-08-21T16:49:40;24.60;56.20
71188;DHT22;58893;53.130;8.158;2022-08-21T16:52:06;24.60;56.40
71188;DHT22;58893;53.130;8.158;2022-08-21T16:54:32;24.60;56.50
71188;DHT22;58893;53.130;8.158;2022-08-21T16:56:58;24.60;56.60
71188;DHT22;58893;53.130;8.158;2022-08-21T16:59:24;24.50;56.60
71188;DHT22;58893;53.130;8.158;2022-08-21T17:01:51;24.50;56.70
71188;DHT22;58893;53.130;8.158;2022-08-21T17:04:18;24.50;56.70
71188;DHT22;58893;53.130;8.158;2022-08-21T17:06:45;24.50;56.80
71188;DHT22;58893;53.130;8.158;2022-08-21T17:09:11;24.50;56.90
71188;DHT22;58893;53.130;8.158;2022-08-21T17:11:40;24.50;56.90
71188;DHT22;58893;53.130;8.158;2022-08-21T17:14:19;24.50;56.70
71188;DHT22;58893;53.130;8.158;2022-08-21T17:16:50;24.40;56.50
71188;DHT22;58893;53.130;8.158;2022-08-21T17:19:17;24.40;56.50
71188;DHT22;58893;53.130;8.158;2022-08-21T17:21:43;24.40;56.50